Time;durP1;ratioP1;P1;durP2;ratioP2;P2;SDS_P1;SDS_P2;PMS_P1;PMS_P2;Temp;Humidity;BMP_temperature;BMP_pressure;BME280_temperature;BME280_humidity;BME280_pressure;Samples;Min_cycle;Max_cycle;Signal;HPM_P1;HPM_P2
2021/08/17 00:01:43;;;;;;;0.10;0.10;;;;;;;22.21;42.40;98736.09;5010413;28;20030;-77
2021/08/17 00:04:09;;;;;;;0.00;0.00;;;;;;;22.19;42.63;98741.91;5010604;28;20088;-76
2021/08/17 00:06:34;;;;;;;0.05;0.05;;;;;;;22.21;42.75;98747.75;5012168;28;20489;-76
2021/08/17 00:09:00;;;;;;;0.00;0.00;;;;;;;22.19;43.14;98744.63;5010413;28;20036;-76
2021/08/17 00:11:26;;;;;;;0.00;0.00;;;;;;;22.21;42.93;98745.03;5011799;28;20105;-76
2021/08/17 00:13:51;;;;;;;0.00;0.00;;;;;;;22.16;42.89;98739.88;5011456;28;20034;-76
2021/08/17 00:16:17;;;;;;;0.03;0.03;;;;;;;22.21;43.48;98752.44;5011650;28;20028;-77
2021/08/17 00:18:43;;;;;;;0.00;0.00;;;;;;;22.18;43.58;98745.78;5009153;28;20026;-77
2021/08/17 00:21:08;;;;;;;0.00;0.00;;;;;;;22.17;43.85;98746.91;5011865;28;20080;-76
2021/08/17 00:23:34;;;;;;;0.10;0.10;;;;;;;22.15;44.46;98751.94;5012088;28;20409;-76
2021/08/17 00:25:59;;;;;;;0.00;0.00;;;;;;;22.16;44.60;98750.00;5010205;28;20378;-76
2021/08/17 00:28:24;;;;;;;0.10;0.10;;;;;;;22.12;44.73;98751.84;5011696;28;20026;-76
2021/08/17 00:30:50;;;;;;;0.10;0.10;;;;;;;22.10;45.41;98746.78;5010952;28;20474;-75
2021/08/17 00:33:15;;;;;;;0.00;0.00;;;;;;;22.02;45.93;98742.34;5011075;28;20046;-75
2021/08/17 00:35:41;;;;;;;0.10;0.10;;;;;;;21.96;46.70;98747.31;5011045;28;20045;-75
2021/08/17 00:38:06;;;;;;;0.00;0.00;;;;;;;21.93;47.45;98744.53;5011140;28;20033;-76
2021/08/17 00:40:33;;;;;;;0.00;0.00;;;;;;;21.87;47.83;98746.75;5010139;28;20080;-76
2021/08/17 00:42:58;;;;;;;0.10;0.10;;;;;;;21.83;48.00;98740.44;5011240;28;20095;-75
2021/08/17 00:45:26;;;;;;;0.10;0.10;;;;;;;21.75;48.03;98737.59;5010570;28;20112;-75
2021/08/17 00:47:53;;;;;;;0.00;0.00;;;;;;;21.70;48.98;98737.88;5011034;28;20113;-75
2021/08/17 00:50:23;;;;;;;0.20;0.20;;;;;;;21.66;49.01;98738.94;5011015;28;20045;-75
2021/08/17 00:52:50;;;;;;;0.10;0.10;;;;;;;21.62;49.13;98738.88;5008527;28;20036;-80
2021/08/17 00:55:17;;;;;;;0.00;0.00;;;;;;;21.61;49.66;98736.50;5009614;28;20026;-79
2021/08/17 00:57:44;;;;;;;0.03;0.03;;;;;;;21.58;49.81;98738.78;5010212;28;20030;-77
2021/08/17 01:00:10;;;;;;;0.00;0.00;;;;;;;21.55;50.79;98739.47;5009694;28;20501;-76
2021/08/17 01:02:36;;;;;;;0.10;0.10;;;;;;;21.49;51.44;98731.97;5011023;28;20153;-77
2021/08/17 01:05:05;;;;;;;0.10;0.10;;;;;;;21.42;52.01;98732.56;5008928;28;20026;-75
2021/08/17 01:07:31;;;;;;;0.10;0.10;;;;;;;21.40;52.28;98738.38;5011414;28;20029;-76
2021/08/17 01:09:57;;;;;;;0.30;0.30;;;;;;;21.33;51.94;98734.72;5010876;28;20025;-76
2021/08/17 01:12:24;;;;;;;0.10;0.10;;;;;;;21.30;50.94;98730.00;5011063;28;20068;-77
2021/08/17 01:14:49;;;;;;;0.10;0.10;;;;;;;21.33;49.20;98738.22;5010027;28;20030;-80
2021/08/17 01:17:19;;;;;;;0.00;0.00;;;;;;;21.35;47.92;98741.38;5010068;28;20532;-77
2021/08/17 01:19:45;;;;;;;0.05;0.05;;;;;;;21.37;47.22;98746.47;5009359;28;20034;-77
2021/08/17 01:22:11;;;;;;;0.10;0.10;;;;;;;21.37;46.93;98738.31;5010083;28;20022;-77
2021/08/17 01:24:37;;;;;;;0.10;0.10;;;;;;;21.34;46.68;98739.03;5011106;28;20033;-78
2021/08/17 01:27:02;;;;;;;0.00;0.00;;;;;;;21.31;46.33;98737.78;5008350;28;20112;-76
2021/08/17 01:29:28;;;;;;;0.08;0.08;;;;;;;21.28;46.53;98742.00;5010964;28;20061;-76
2021/08/17 01:31:54;;;;;;;0.10;0.10;;;;;;;21.22;46.62;98734.50;5010095;28;20040;-76
2021/08/17 01:34:19;;;;;;;0.10;0.10;;;;;;;21.18;46.69;98737.13;5009991;28;20116;-76
2021/08/17 01:36:45;;;;;;;0.10;0.10;;;;;;;21.11;46.61;98735.03;5010943;28;20033;-77
2021/08/17 01:39:11;;;;;;;0.10;0.10;;;;;;;21.10;46.75;98735.38;5010804;28;20033;-76
2021/08/17 01:41:36;;;;;;;0.10;0.10;;;;;;;21.05;46.86;98735.66;5010391;28;20030;-78
2021/08/17 01:44:12;;;;;;;0.10;0.10;;;;;;;21.05;46.74;98732.94;5009024;28;20034;-77
2021/08/17 01:46:39;;;;;;;0.00;0.00;;;;;;;21.00;46.57;98731.28;5010841;28;20108;-77
2021/08/17 01:49:05;;;;;;;0.10;0.10;;;;;;;20.99;46.75;98726.22;5010368;28;20033;-77
2021/08/17 01:51:30;;;;;;;0.00;0.00;;;;;;;20.98;46.92;98732.78;5009775;28;20404;-78
2021/08/17 01:53:56;;;;;;;0.00;0.00;;;;;;;20.95;46.83;98732.34;5009484;28;20030;-77
2021/08/17 01:56:21;;;;;;;0.03;0.03;;;;;;;20.94;46.78;98727.28;5010793;28;20026;-78
2021/08/17 01:58:46;;;;;;;0.00;0.00;;;;;;;20.94;46.68;98728.03;5009373;28;20404;-78
2021/08/17 02:01:12;;;;;;;0.00;0.00;;;;;;;20.89;46.90;98720.16;5001595;28;20117;-79
2021/08/17 02:03:38;;;;;;;0.00;0.00;;;;;;;20.88;46.83;98715.88;5007589;28;20062;-76
2021/08/17 02:06:05;;;;;;;0.00;0.00;;;;;;;20.87;46.94;98719.75;5010380;28;20065;-76
2021/08/17 02:08:31;;;;;;;0.28;0.10;;;;;;;20.81;46.76;98720.34;5010688;28;20072;-76
2021/08/17 02:10:56;;;;;;;0.10;0.10;;;;;;;20.77;46.89;98710.19;5009924;28;20057;-76
2021/08/17 02:13:23;;;;;;;0.10;0.10;;;;;;;20.72;47.29;98710.47;5010370;28;20040;-77
2021/08/17 02:15:49;;;;;;;0.00;0.00;;;;;;;20.71;47.22;98724.38;5010519;28;20482;-77
2021/08/17 02:18:15;;;;;;;0.00;0.00;;;;;;;20.62;47.35;98714.47;5012608;28;20532;-76
2021/08/17 02:20:41;;;;;;;0.00;0.00;;;;;;;20.53;47.51;98713.06;5013819;28;20029;-75
2021/08/17 02:23:06;;;;;;;0.00;0.00;;;;;;;20.48;47.85;98722.25;5013718;28;20437;-76
2021/08/17 02:25:32;;;;;;;0.03;0.03;;;;;;;20.35;48.10;98712.63;5013393;28;20053;-73
2021/08/17 02:27:57;;;;;;;0.10;0.10;;;;;;;20.23;48.27;98697.22;5013495;28;20037;-75
2021/08/17 02:30:23;;;;;;;0.00;0.00;;;;;;;20.18;48.22;98702.88;5012799;28;20441;-75
2021/08/17 02:32:48;;;;;;;0.10;0.10;;;;;;;20.15;48.43;98713.31;5012854;28;20034;-75
2021/08/17 02:35:14;;;;;;;0.00;0.00;;;;;;;20.09;48.56;98713.91;5012891;28;20383;-76
2021/08/17 02:37:39;;;;;;;0.10;0.10;;;;;;;20.05;48.59;98705.66;5013668;28;20393;-76
2021/08/17 02:40:06;;;;;;;0.08;0.08;;;;;;;20.02;48.81;98711.81;5013144;28;20515;-76
2021/08/17 02:42:33;;;;;;;0.00;0.00;;;;;;;19.97;48.81;98707.41;5013492;28;20400;-75
2021/08/17 02:44:58;;;;;;;0.00;0.00;;;;;;;19.98;48.93;98719.03;5013323;28;20117;-76
2021/08/17 02:47:26;;;;;;;0.10;0.10;;;;;;;19.94;49.16;98723.59;5013596;28;20484;-77
2021/08/17 02:49:51;;;;;;;0.23;0.23;;;;;;;19.91;49.13;98727.78;5013592;28;20037;-77
2021/08/17 02:52:17;;;;;;;0.10;0.10;;;;;;;19.90;49.30;98722.72;5013260;28;20449;-76
2021/08/17 02:54:42;;;;;;;0.08;0.08;;;;;;;19.87;49.41;98717.97;5013465;28;20029;-75
2021/08/17 02:57:07;;;;;;;0.05;0.05;;;;;;;19.84;49.50;98716.75;5011856;28;20030;-77
2021/08/17 02:59:34;;;;;;;0.10;0.10;;;;;;;19.80;49.64;98713.13;5012113;28;20122;-76
2021/08/17 03:01:59;;;;;;;0.00;0.00;;;;;;;19.79;49.35;98719.69;5012573;28;20065;-75
2021/08/17 03:04:24;;;;;;;0.10;0.10;;;;;;;19.78;49.67;98721.59;5012007;28;20045;-78
2021/08/17 03:06:50;;;;;;;0.03;0.03;;;;;;;19.75;49.63;98716.88;5011701;28;20034;-77
2021/08/17 03:09:15;;;;;;;0.00;0.00;;;;;;;19.72;49.85;98728.41;5011891;28;20253;-75
2021/08/17 03:11:41;;;;;;;0.10;0.10;;;;;;;19.65;49.91;98717.34;5012441;28;20034;-77
2021/08/17 03:14:06;;;;;;;0.00;0.00;;;;;;;19.61;50.14;98719.94;5011902;28;20033;-77
2021/08/17 03:16:32;;;;;;;0.10;0.10;;;;;;;19.58;50.14;98717.94;5012733;28;20405;-76
2021/08/17 03:18:57;;;;;;;0.00;0.00;;;;;;;19.54;50.54;98713.53;5012325;28;20030;-78
2021/08/17 03:21:23;;;;;;;0.10;0.10;;;;;;;19.50;50.53;98719.66;5012464;28;20666;-77
2021/08/17 03:23:50;;;;;;;0.00;0.00;;;;;;;19.52;50.62;98722.81;5012729;28;20034;-76
2021/08/17 03:26:15;;;;;;;0.10;0.10;;;;;;;19.52;50.87;98727.47;5012082;28;20103;-77
2021/08/17 03:28:41;;;;;;;0.10;0.10;;;;;;;19.51;50.87;98723.94;5010812;28;20553;-77
2021/08/17 03:31:06;;;;;;;0.10;0.10;;;;;;;19.56;51.01;98735.69;5010584;28;20041;-77
2021/08/17 03:33:33;;;;;;;0.05;0.05;;;;;;;19.54;51.08;98733.31;5012129;28;20034;-77
2021/08/17 03:35:58;;;;;;;0.30;0.30;;;;;;;19.56;50.49;98744.63;5010919;28;20034;-78
2021/08/17 03:38:24;;;;;;;0.10;0.10;;;;;;;19.57;49.92;98738.06;5011586;28;20030;-77
2021/08/17 03:40:49;;;;;;;0.00;0.00;;;;;;;19.67;49.75;98743.00;5010602;28;20034;-77
2021/08/17 03:43:15;;;;;;;0.00;0.00;;;;;;;19.72;49.70;98733.81;5010704;28;20030;-77
2021/08/17 03:45:40;;;;;;;0.00;0.00;;;;;;;19.88;49.27;98735.84;5010957;28;20025;-77
2021/08/17 03:48:06;;;;;;;0.10;0.10;;;;;;;20.12;48.77;98740.38;5011828;28;20056;-76
2021/08/17 03:50:32;;;;;;;0.43;0.30;;;;;;;20.35;48.35;98739.78;5012170;28;20018;-76
2021/08/17 03:52:58;;;;;;;0.08;0.08;;;;;;;20.69;47.61;98740.22;5011953;28;20033;-77
2021/08/17 03:55:23;;;;;;;0.13;0.13;;;;;;;20.99;46.91;98737.09;5012227;28;20105;-76
2021/08/17 03:57:50;;;;;;;0.00;0.00;;;;;;;21.36;46.08;98734.00;5012514;28;20402;-77
2021/08/17 04:00:18;;;;;;;0.13;0.13;;;;;;;21.74;45.34;98746.13;5011452;28;20514;-77
2021/08/17 04:02:44;;;;;;;0.00;0.00;;;;;;;22.11;44.74;98734.75;4994267;28;20575;-77
2021/08/17 04:05:10;;;;;;;0.00;0.00;;;;;;;22.53;43.79;98739.41;5011703;28;20030;-77
2021/08/17 04:07:37;;;;;;;0.00;0.00;;;;;;;22.97;42.86;98734.63;5011787;28;20045;-77
2021/08/17 04:10:04;;;;;;;0.05;0.05;;;;;;;23.34;41.78;98725.84;5010469;28;20508;-78
2021/08/17 04:12:29;;;;;;;0.00;0.00;;;;;;;23.83;40.80;98729.53;5011426;28;20041;-78
2021/08/17 04:14:55;;;;;;;0.03;0.03;;;;;;;24.25;40.05;98720.22;5011804;28;20041;-80
2021/08/17 04:17:20;;;;;;;0.00;0.00;;;;;;;24.70;39.22;98730.41;5010151;28;20489;-80
2021/08/17 04:19:46;;;;;;;0.20;0.20;;;;;;;25.09;38.53;98727.16;5009901;28;20033;-78
2021/08/17 04:22:11;;;;;;;0.10;0.10;;;;;;;25.52;37.61;98732.91;5009986;28;20034;-78
2021/08/17 04:24:37;;;;;;;0.03;0.03;;;;;;;25.91;37.26;98727.94;5010281;28;20029;-79
2021/08/17 04:27:03;;;;;;;0.00;0.00;;;;;;;26.30;36.33;98732.72;5010929;28;20032;-78
2021/08/17 04:29:29;;;;;;;0.00;0.00;;;;;;;26.68;35.34;98735.88;5009939;28;20030;-77
2021/08/17 04:31:54;;;;;;;0.00;0.00;;;;;;;27.06;35.12;98722.56;5010992;28;20036;-77
2021/08/17 04:34:19;;;;;;;0.00;0.00;;;;;;;27.46;34.31;98722.44;5010224;28;20481;-75
2021/08/17 04:36:45;;;;;;;0.10;0.10;;;;;;;27.88;33.75;98722.63;5009857;28;20485;-77
2021/08/17 04:39:10;;;;;;;0.00;0.00;;;;;;;28.21;33.10;98713.03;5009260;28;20030;-78
2021/08/17 04:41:36;;;;;;;0.00;0.00;;;;;;;28.60;32.41;98720.19;5008502;28;20489;-75
2021/08/17 04:44:02;;;;;;;0.00;0.00;;;;;;;28.90;31.78;98716.00;5010410;28;20233;-77
2021/08/17 04:46:27;;;;;;;0.00;0.00;;;;;;;29.22;31.27;98725.13;5011318;28;20515;-76
2021/08/17 04:48:52;;;;;;;0.00;0.00;;;;;;;29.48;30.51;98720.94;5010141;28;20042;-78
2021/08/17 04:51:19;;;;;;;0.00;0.00;;;;;;;29.83;29.88;98718.91;5011400;28;20393;-76
2021/08/17 04:53:44;;;;;;;0.00;0.00;;;;;;;30.05;29.39;98720.59;5011938;28;20034;-76
2021/08/17 04:56:10;;;;;;;0.00;0.00;;;;;;;30.30;29.21;98718.25;5010308;28;20152;-76
2021/08/17 04:58:35;;;;;;;0.00;0.00;;;;;;;30.54;28.87;98721.06;5010063;28;20033;-77
2021/08/17 05:01:00;;;;;;;0.05;0.05;;;;;;;30.78;28.40;98718.28;5011086;28;20013;-80
2021/08/17 05:03:26;;;;;;;0.08;0.08;;;;;;;31.03;28.14;98728.09;5009650;28;20037;-81
2021/08/17 05:05:52;;;;;;;0.00;0.00;;;;;;;31.25;27.70;98726.50;5009892;28;20036;-81
2021/08/17 05:08:18;;;;;;;0.00;0.00;;;;;;;31.48;27.72;98724.09;5009399;28;20567;-78
2021/08/17 05:10:43;;;;;;;0.00;0.00;;;;;;;31.71;27.52;98728.78;5009623;28;20033;-78
2021/08/17 05:13:09;;;;;;;0.00;0.00;;;;;;;31.95;27.29;98721.13;5009488;28;20045;-77
2021/08/17 05:15:35;;;;;;;0.00;0.00;;;;;;;32.15;26.91;98723.06;5009547;28;20057;-79
2021/08/17 05:18:02;;;;;;;0.00;0.00;;;;;;;32.36;26.83;98719.03;5010708;28;20030;-78
2021/08/17 05:20:28;;;;;;;0.10;0.10;;;;;;;32.52;26.62;98724.56;5009871;28;20024;-79
2021/08/17 05:22:53;;;;;;;0.00;0.00;;;;;;;32.74;26.74;98718.50;5009420;28;20128;-79
2021/08/17 05:25:19;;;;;;;0.00;0.00;;;;;;;32.86;26.62;98720.56;5009027;28;20026;-80
2021/08/17 05:27:45;;;;;;;0.00;0.00;;;;;;;32.94;26.86;98721.16;5009485;28;20168;-79
2021/08/17 05:30:11;;;;;;;0.73;0.43;;;;;;;33.02;27.14;98728.06;5009702;28;20026;-80
2021/08/17 05:32:37;;;;;;;0.00;0.00;;;;;;;33.09;27.36;98715.97;5009253;28;20038;-78
2021/08/17 05:35:03;;;;;;;0.00;0.00;;;;;;;33.22;27.26;98721.56;5009136;28;20041;-79
2021/08/17 05:37:29;;;;;;;0.10;0.10;;;;;;;33.28;27.42;98719.81;5009795;28;20030;-77
2021/08/17 05:39:54;;;;;;;0.10;0.10;;;;;;;33.35;27.09;98727.19;5010754;28;20455;-77
2021/08/17 05:42:20;;;;;;;0.00;0.00;;;;;;;33.32;27.01;98720.53;5008523;28;20068;-75
2021/08/17 05:44:45;;;;;;;0.00;0.00;;;;;;;33.15;27.35;98724.53;5010450;28;20041;-89
2021/08/17 05:47:12;;;;;;;0.00;0.00;;;;;;;33.04;27.46;98724.84;5005041;28;20034;-83
2021/08/17 05:49:38;;;;;;;0.00;0.00;;;;;;;32.94;27.38;98728.69;5009525;28;20034;-83
2021/08/17 05:52:05;;;;;;;0.20;0.20;;;;;;;32.86;27.62;98728.06;5005370;28;20509;-85
2021/08/17 05:54:31;;;;;;;0.00;0.00;;;;;;;32.74;27.66;98726.78;5005479;28;20056;-81
2021/08/17 05:56:58;;;;;;;0.00;0.00;;;;;;;32.65;27.71;98730.16;5013418;28;20132;-81
2021/08/17 05:59:25;;;;;;;0.20;0.20;;;;;;;32.45;27.89;98726.75;5009351;28;20371;-80
2021/08/17 06:01:52;;;;;;;0.15;0.15;;;;;;;32.27;28.29;98719.63;4995057;28;20470;-78
2021/08/17 06:04:18;;;;;;;0.00;0.00;;;;;;;32.22;28.37;98723.69;4993484;28;20113;-77
2021/08/17 06:06:44;;;;;;;0.08;0.08;;;;;;;32.17;28.48;98721.41;5000384;28;20543;-79
2021/08/17 06:09:09;;;;;;;0.00;0.00;;;;;;;32.23;28.62;98724.47;4999452;28;20053;-80
2021/08/17 06:11:35;;;;;;;0.00;0.00;;;;;;;32.30;28.61;98715.22;4997296;28;20032;-78
2021/08/17 06:14:00;;;;;;;0.00;0.00;;;;;;;32.37;27.77;98724.16;5014165;28;20022;-80
2021/08/17 06:16:25;;;;;;;0.10;0.10;;;;;;;32.43;27.76;98720.84;5011904;28;20072;-80
2021/08/17 06:18:51;;;;;;;0.10;0.10;;;;;;;32.45;27.81;98721.19;5012240;28;20084;-82
2021/08/17 06:21:16;;;;;;;0.00;0.00;;;;;;;32.25;27.90;98711.78;5012235;28;20038;-75
2021/08/17 06:23:42;;;;;;;0.03;0.03;;;;;;;32.23;27.63;98716.94;5008484;28;20038;-75
2021/08/17 06:26:07;;;;;;;0.20;0.20;;;;;;;32.14;27.92;98714.00;5011113;28;20030;-75
2021/08/17 06:28:33;;;;;;;0.10;0.10;;;;;;;32.06;27.76;98716.13;5013515;28;20022;-75
2021/08/17 06:30:58;;;;;;;0.10;0.10;;;;;;;31.92;27.78;98714.47;5011657;28;20051;-75
2021/08/17 06:33:23;;;;;;;0.52;0.52;;;;;;;31.82;28.18;98720.25;5012946;28;20117;-75
2021/08/17 06:35:49;;;;;;;0.15;0.15;;;;;;;31.64;28.57;98723.38;5013940;28;20104;-75
2021/08/17 06:38:14;;;;;;;0.00;0.00;;;;;;;31.53;28.27;98712.53;5013339;28;20033;-75
2021/08/17 06:40:40;;;;;;;0.00;0.00;;;;;;;31.45;28.51;98718.19;5013761;28;20022;-75
2021/08/17 06:43:05;;;;;;;0.10;0.10;;;;;;;31.37;28.83;98718.78;5009160;28;20425;-75
2021/08/17 06:45:31;;;;;;;0.00;0.00;;;;;;;31.21;28.79;98720.25;5012907;28;20037;-74
2021/08/17 06:47:57;;;;;;;0.00;0.00;;;;;;;31.00;28.79;98718.66;5013972;28;20034;-75
2021/08/17 06:50:22;;;;;;;0.00;0.00;;;;;;;30.77;28.79;98720.28;5013336;28;20026;-74
2021/08/17 06:52:48;;;;;;;0.00;0.00;;;;;;;30.62;30.06;98713.44;5013262;28;20178;-75
2021/08/17 06:55:14;;;;;;;0.10;0.10;;;;;;;30.48;29.75;98706.94;5011744;28;20480;-75
2021/08/17 06:57:40;;;;;;;0.10;0.10;;;;;;;30.24;30.11;98713.63;5013564;28;20489;-75
2021/08/17 07:00:08;;;;;;;0.00;0.00;;;;;;;30.14;31.21;98713.38;5013350;28;20030;-75
2021/08/17 07:02:34;;;;;;;0.00;0.00;;;;;;;30.04;31.22;98703.25;5012757;28;20064;-76
2021/08/17 07:05:00;;;;;;;0.10;0.10;;;;;;;30.01;31.05;98712.38;5012801;28;20029;-76
2021/08/17 07:07:26;;;;;;;0.00;0.00;;;;;;;30.02;31.47;98711.97;5011054;28;20512;-75
2021/08/17 07:09:51;;;;;;;0.00;0.00;;;;;;;29.93;31.57;98702.66;5013340;28;20037;-74
2021/08/17 07:12:17;;;;;;;0.00;0.00;;;;;;;29.84;31.35;98714.16;5012848;28;20480;-74
2021/08/17 07:14:42;;;;;;;0.00;0.00;;;;;;;29.71;31.74;98705.66;5013239;28;20017;-73
2021/08/17 07:17:07;;;;;;;0.10;0.10;;;;;;;29.52;32.26;98702.38;5011186;28;20485;-75
2021/08/17 07:19:33;;;;;;;0.08;0.08;;;;;;;29.48;32.18;98706.34;5012764;28;20549;-74
2021/08/17 07:21:59;;;;;;;0.00;0.00;;;;;;;29.41;32.24;98700.94;5012356;28;20113;-77
2021/08/17 07:24:25;;;;;;;0.00;0.00;;;;;;;29.34;32.51;98699.84;5012735;28;20470;-78
2021/08/17 07:26:51;;;;;;;0.00;0.00;;;;;;;29.36;32.55;98699.44;5013179;28;20033;-77
2021/08/17 07:29:16;;;;;;;0.00;0.00;;;;;;;29.37;33.44;98701.00;5011965;28;20033;-77
2021/08/17 07:31:42;;;;;;;0.00;0.00;;;;;;;29.44;33.24;98700.91;5012675;28;20037;-77
2021/08/17 07:34:07;;;;;;;0.00;0.00;;;;;;;29.47;32.63;98694.56;5012302;28;20490;-77
2021/08/17 07:36:35;;;;;;;0.00;0.00;;;;;;;29.54;32.14;98696.44;5012399;28;20516;-78
2021/08/17 07:39:09;;;;;;;0.00;0.00;;;;;;;29.61;32.09;98696.34;5012840;28;20041;-76
2021/08/17 07:41:35;;;;;;;0.00;0.00;;;;;;;29.66;32.30;98700.63;5012567;28;20030;-76
2021/08/17 07:44:02;;;;;;;0.10;0.10;;;;;;;29.73;32.64;98700.53;5012712;28;20109;-76
2021/08/17 07:46:27;;;;;;;0.10;0.10;;;;;;;29.80;32.44;98697.69;5012015;28;20109;-76
2021/08/17 07:48:53;;;;;;;0.25;0.25;;;;;;;29.85;32.26;98697.22;5012058;28;20474;-76
2021/08/17 07:51:19;;;;;;;0.00;0.00;;;;;;;29.94;31.78;98701.47;5012218;28;20033;-76
2021/08/17 07:53:45;;;;;;;0.08;0.08;;;;;;;29.94;31.50;98704.97;5012323;28;20456;-76
2021/08/17 07:56:11;;;;;;;0.10;0.10;;;;;;;29.87;30.85;98689.31;5012305;28;20397;-76
2021/08/17 07:58:37;;;;;;;0.00;0.00;;;;;;;29.90;30.83;98696.00;5011867;28;20065;-75
2021/08/17 08:01:03;;;;;;;0.00;0.00;;;;;;;29.96;30.92;98699.06;5011169;28;20029;-76
2021/08/17 08:03:29;;;;;;;0.10;0.10;;;;;;;29.92;30.49;98698.31;5005058;28;20038;-74
2021/08/17 08:05:54;;;;;;;0.30;0.30;;;;;;;29.85;30.69;98690.94;5011521;28;20022;-75
2021/08/17 08:08:20;;;;;;;0.10;0.10;;;;;;;29.70;30.44;98685.63;5011866;28;20026;-75
2021/08/17 08:10:45;;;;;;;0.35;0.30;;;;;;;29.62;30.66;98677.88;4998582;28;20397;-74
2021/08/17 08:13:10;;;;;;;0.10;0.10;;;;;;;29.47;31.22;98680.81;4992287;28;20406;-76
2021/08/17 08:15:36;;;;;;;0.10;0.10;;;;;;;29.30;31.47;98668.03;4991518;28;20034;-76
2021/08/17 08:18:02;;;;;;;0.43;0.43;;;;;;;29.24;31.29;98684.19;4992429;28;20036;-76
2021/08/17 08:20:27;;;;;;;0.00;0.00;;;;;;;29.26;31.18;98670.81;4991900;28;20081;-76
2021/08/17 08:22:53;;;;;;;0.52;0.52;;;;;;;29.32;30.59;98680.22;5010531;28;20064;-75
2021/08/17 08:25:18;;;;;;;0.00;0.00;;;;;;;29.37;29.79;98679.75;5011734;28;20033;-74
2021/08/17 08:27:44;;;;;;;0.00;0.00;;;;;;;29.43;29.39;98677.31;5011891;28;20056;-77
2021/08/17 08:30:11;;;;;;;0.63;0.63;;;;;;;29.46;29.32;98670.97;5011353;28;20025;-74
2021/08/17 08:32:37;;;;;;;0.00;0.00;;;;;;;29.52;27.74;98674.06;5010980;28;20141;-74
2021/08/17 08:35:04;;;;;;;0.00;0.00;;;;;;;29.59;28.10;98670.41;5011098;28;20046;-74
2021/08/17 08:37:30;;;;;;;;;;;;;;;29.61;28.05;98670.78;5010580;28;20033;-74
2021/08/17 08:39:57;;;;;;;0.10;0.10;;;;;;;29.61;28.48;98662.53;5011245;28;19990;-76
2021/08/17 08:42:23;;;;;;;0.10;0.10;;;;;;;29.69;28.77;98666.75;5010984;28;20033;-76
2021/08/17 08:44:49;;;;;;;0.10;0.10;;;;;;;29.76;28.69;98669.41;5011788;28;20029;-76
2021/08/17 08:47:14;;;;;;;0.22;0.22;;;;;;;29.78;28.49;98658.72;5011334;28;20053;-76
2021/08/17 08:49:42;;;;;;;0.10;0.10;;;;;;;29.89;28.66;98661.31;5011440;28;20469;-75
2021/08/17 08:52:08;;;;;;;0.08;0.08;;;;;;;29.90;27.27;98662.13;5011770;28;20037;-75
2021/08/17 08:54:33;;;;;;;0.10;0.10;;;;;;;29.93;26.99;98658.53;5011333;28;20045;-75
2021/08/17 08:56:59;;;;;;;0.00;0.00;;;;;;;29.97;27.08;98651.78;5011474;28;20068;-75
2021/08/17 08:59:24;;;;;;;0.00;0.00;;;;;;;30.02;27.32;98651.31;5010782;28;20057;-76
2021/08/17 09:01:50;;;;;;;0.10;0.10;;;;;;;30.07;26.96;98646.53;5011391;28;20482;-75
2021/08/17 09:04:16;;;;;;;0.03;0.03;;;;;;;30.13;26.98;98656.66;5011072;28;20405;-75
2021/08/17 09:06:51;;;;;;;0.00;0.00;;;;;;;30.13;27.10;98653.91;5011408;28;20037;-75
2021/08/17 09:09:17;;;;;;;0.10;0.10;;;;;;;30.18;27.69;98647.13;5011171;28;20037;-76
2021/08/17 09:11:46;;;;;;;0.00;0.00;;;;;;;30.24;27.95;98647.44;5010671;28;20501;-75
2021/08/17 09:14:15;;;;;;;0.10;0.10;;;;;;;30.26;26.82;98645.81;5011087;28;20125;-75
2021/08/17 09:16:40;;;;;;;0.00;0.00;;;;;;;30.27;26.80;98638.31;5011116;28;20026;-75
2021/08/17 09:19:23;;;;;;;0.10;0.10;;;;;;;30.26;26.45;98629.28;5011055;28;20436;-74
2021/08/17 09:21:49;;;;;;;0.00;0.00;;;;;;;30.29;26.59;98631.19;5011106;28;20022;-75
2021/08/17 09:24:18;;;;;;;0.00;0.00;;;;;;;30.29;26.08;98630.41;5011157;28;20496;-75
2021/08/17 09:27:05;;;;;;;0.00;0.00;;;;;;;30.31;25.96;98622.47;5012172;28;20025;-75
2021/08/17 09:29:43;;;;;;;0.13;0.13;;;;;;;30.35;26.20;98620.44;5014853;28;20026;-75
2021/08/17 09:32:20;;;;;;;0.43;0.43;;;;;;;30.36;25.69;98624.78;5014641;28;20026;-74
2021/08/17 09:34:48;;;;;;;0.00;0.00;;;;;;;30.38;25.73;98622.34;5014243;28;20476;-74
2021/08/17 09:37:15;;;;;;;0.00;0.00;;;;;;;30.40;25.54;98605.41;5014937;28;20057;-75
2021/08/17 09:39:47;;;;;;;0.00;0.00;;;;;;;30.42;25.93;98603.78;5014563;28;20508;-75
2021/08/17 09:42:21;;;;;;;0.00;0.00;;;;;;;30.47;25.17;98603.28;5011852;28;20067;-75
2021/08/17 09:45:13;;;;;;;0.00;0.00;;;;;;;30.53;24.43;98608.34;5014508;28;20038;-75
2021/08/17 09:47:42;;;;;;;0.10;0.10;;;;;;;30.43;24.70;98602.56;5006430;28;20041;-75
2021/08/17 09:50:22;;;;;;;0.05;0.05;;;;;;;30.42;24.65;98605.75;5014798;28;20107;-75
2021/08/17 09:52:49;;;;;;;0.20;0.20;;;;;;;30.38;23.65;98592.00;5015104;28;20060;-75
2021/08/17 09:55:20;;;;;;;0.00;0.00;;;;;;;30.43;24.06;98593.50;5014840;28;20143;-75
2021/08/17 09:57:47;;;;;;;0.05;0.05;;;;;;;30.44;24.24;98578.53;5014483;28;20541;-75
2021/08/17 10:00:17;;;;;;;0.00;0.00;;;;;;;30.44;24.33;98581.28;5013651;28;20033;-74
2021/08/17 10:02:47;;;;;;;0.00;0.00;;;;;;;30.47;23.81;98578.44;5014233;28;20505;-76
2021/08/17 10:05:14;;;;;;;0.00;0.00;;;;;;;30.45;23.46;98580.84;5013969;28;20386;-76
2021/08/17 10:07:41;;;;;;;0.00;0.00;;;;;;;30.47;23.68;98575.69;5014324;28;20080;-76
2021/08/17 10:10:08;;;;;;;0.00;0.00;;;;;;;30.46;24.00;98576.13;5014285;28;20045;-76
2021/08/17 10:12:35;;;;;;;0.00;0.00;;;;;;;30.47;24.28;98580.44;5014329;28;20034;-76
2021/08/17 10:15:02;;;;;;;0.00;0.00;;;;;;;30.53;23.94;98575.22;5012716;28;20026;-75
2021/08/17 10:17:27;;;;;;;0.00;0.00;;;;;;;30.57;22.73;98584.22;5014103;28;20121;-74
2021/08/17 10:19:53;;;;;;;0.25;0.25;;;;;;;30.48;23.18;98581.97;5013560;28;20153;-74
2021/08/17 10:22:19;;;;;;;0.22;0.22;;;;;;;30.43;22.86;98575.00;5014196;28;20034;-76
2021/08/17 10:24:48;;;;;;;0.03;0.03;;;;;;;30.47;23.35;98564.66;5013934;28;20128;-77
2021/08/17 10:27:26;;;;;;;0.00;0.00;;;;;;;30.50;23.53;98572.13;5013336;28;20052;-75
2021/08/17 10:30:05;;;;;;;0.13;0.13;;;;;;;30.53;23.41;98566.94;5013624;28;20030;-75
2021/08/17 10:32:42;;;;;;;0.32;0.32;;;;;;;30.60;24.08;98561.28;4995264;28;20517;-74
2021/08/17 10:35:28;;;;;;;0.00;0.00;;;;;;;30.68;24.55;98556.44;4998421;28;20045;-74
2021/08/17 10:38:09;;;;;;;0.00;0.00;;;;;;;30.75;23.75;98540.50;5012908;28;20034;-76
2021/08/17 10:40:52;;;;;;;0.00;0.00;;;;;;;30.86;23.94;98550.53;5013667;28;20079;-76
2021/08/17 10:43:22;;;;;;;0.00;0.00;;;;;;;30.89;23.61;98546.94;5013784;28;20101;-76
2021/08/17 10:45:54;;;;;;;0.00;0.00;;;;;;;30.96;24.35;98532.97;5013094;28;20038;-76
2021/08/17 10:48:51;;;;;;;0.10;0.10;;;;;;;31.07;24.35;98535.50;5013282;28;20037;-76
2021/08/17 10:51:22;;;;;;;0.00;0.00;;;;;;;31.14;24.76;98529.88;5013054;28;20500;-79
2021/08/17 10:53:51;;;;;;;0.00;0.00;;;;;;;31.22;24.62;98533.22;5013565;28;20064;-75
2021/08/17 10:56:28;;;;;;;0.00;0.00;;;;;;;31.27;23.89;98532.72;5011776;28;20051;-74
2021/08/17 10:58:56;;;;;;;0.10;0.10;;;;;;;31.26;23.63;98518.13;5013650;28;20034;-74
2021/08/17 11:01:30;;;;;;;0.00;0.00;;;;;;;31.35;23.75;98512.00;5012954;28;20026;-76
2021/08/17 11:04:19;;;;;;;0.00;0.00;;;;;;;31.45;23.67;98510.22;5013229;28;20097;-74
2021/08/17 11:06:55;;;;;;;0.00;0.00;;;;;;;31.46;23.45;98507.00;5009832;28;20041;-74
2021/08/17 11:09:24;;;;;;;0.00;0.00;;;;;;;31.51;23.17;98513.25;5013111;28;20065;-74
2021/08/17 11:12:06;;;;;;;0.00;0.00;;;;;;;31.49;23.23;98507.34;5012783;28;20029;-74
2021/08/17 11:14:37;;;;;;;0.00;0.00;;;;;;;31.54;23.39;98496.56;5012808;28;20037;-75
2021/08/17 11:17:13;;;;;;;0.20;0.20;;;;;;;31.57;22.71;98489.41;5012929;28;20386;-74
2021/08/17 11:19:42;;;;;;;0.00;0.00;;;;;;;31.62;22.99;98488.88;5012827;28;20030;-74
2021/08/17 11:22:09;;;;;;;0.22;0.20;;;;;;;31.69;22.46;98490.69;5012520;28;20038;-77
2021/08/17 11:24:39;;;;;;;0.00;0.00;;;;;;;31.69;22.69;98485.16;5012611;28;20026;-77
2021/08/17 11:27:11;;;;;;;0.00;0.00;;;;;;;31.75;23.14;98488.97;5012751;28;20112;-75
2021/08/17 11:29:47;;;;;;;0.00;0.00;;;;;;;31.81;23.33;98473.44;5012555;28;20529;-75
2021/08/17 11:32:34;;;;;;;0.00;0.00;;;;;;;31.87;22.72;98476.44;5012899;28;20037;-75
2021/08/17 11:35:20;;;;;;;0.00;0.00;;;;;;;31.84;22.24;98467.00;5008481;28;20048;-74